sensor_id;sensor_type;location;lat;lon;timestamp;temperature;humidity
11132;DHT22;5620;53.570;9.718;2022-09-28T00:01:28;8.90;87.50
11132;DHT22;5620;53.570;9.718;2022-09-28T00:03:55;8.90;99.00
11132;DHT22;5620;53.570;9.718;2022-09-28T00:06:26;8.90;25.50
11132;DHT22;5620;53.570;9.718;2022-09-28T00:08:54;8.80;89.60
11132;DHT22;5620;53.570;9.718;2022-09-28T00:11:24;8.80;99.90
11132;DHT22;5620;53.570;9.718;2022-09-28T00:13:53;8.80;99.90
11132;DHT22;5620;53.570;9.718;2022-09-28T00:16:25;8.80;99.90
11132;DHT22;5620;53.570;9.718;2022-09-28T00:18:54;8.80;1.00
11132;DHT22;5620;53.570;9.718;2022-09-28T00:21:21;8.70;1.00
11132;DHT22;5620;53.570;9.718;2022-09-28T00:23:53;8.70;1.00
11132;DHT22;5620;53.570;9.718;2022-09-28T00:26:20;8.60;1.00
11132;DHT22;5620;53.570;9.718;2022-09-28T00:28:50;8.60;1.00
11132;DHT22;5620;53.570;9.718;2022-09-28T00:31:22;8.50;1.00
11132;DHT22;5620;53.570;9.718;2022-09-28T00:34:04;8.50;22.00
11132;DHT22;5620;53.570;9.718;2022-09-28T00:36:31;8.40;84.50
11132;DHT22;5620;53.570;9.718;2022-09-28T00:39:03;8.30;99.90
11132;DHT22;5620;53.570;9.718;2022-09-28T00:41:29;8.20;99.90
11132;DHT22;5620;53.570;9.718;2022-09-28T00:50:36;8.10;99.90
11132;DHT22;5620;53.570;9.718;2022-09-28T00:53:22;8.10;99.90
11132;DHT22;5620;53.570;9.718;2022-09-28T00:56:00;8.10;99.90
11132;DHT22;5620;53.570;9.718;2022-09-28T00:58:34;8.00;1.00
11132;DHT22;5620;53.570;9.718;2022-09-28T01:01:00;8.00;1.00
11132;DHT22;5620;53.570;9.718;2022-09-28T01:03:28;8.10;1.00
11132;DHT22;5620;53.570;9.718;2022-09-28T01:06:06;8.10;1.00
11132;DHT22;5620;53.570;9.718;2022-09-28T01:08:33;8.10;1.00
11132;DHT22;5620;53.570;9.718;2022-09-28T01:11:02;8.10;1.00
11132;DHT22;5620;53.570;9.718;2022-09-28T01:13:29;8.10;1.00
11132;DHT22;5620;53.570;9.718;2022-09-28T01:19:22;8.20;1.00
11132;DHT22;5620;53.570;9.718;2022-09-28T01:22:06;8.20;1.00
11132;DHT22;5620;53.570;9.718;2022-09-28T01:24:50;8.20;1.00
11132;DHT22;5620;53.570;9.718;2022-09-28T01:27:41;8.20;1.00
11132;DHT22;5620;53.570;9.718;2022-09-28T01:30:20;8.30;1.00
11132;DHT22;5620;53.570;9.718;2022-09-28T01:33:09;8.30;6.60
11132;DHT22;5620;53.570;9.718;2022-09-28T01:35:59;8.50;84.10
11132;DHT22;5620;53.570;9.718;2022-09-28T01:38:45;8.60;99.90
11132;DHT22;5620;53.570;9.718;2022-09-28T01:41:37;8.70;94.10
11132;DHT22;5620;53.570;9.718;2022-09-28T01:44:17;8.90;1.00
11132;DHT22;5620;53.570;9.718;2022-09-28T01:46:52;9.00;1.00
11132;DHT22;5620;53.570;9.718;2022-09-28T01:49:36;9.10;1.00
11132;DHT22;5620;53.570;9.718;2022-09-28T01:55:31;9.30;1.00
11132;DHT22;5620;53.570;9.718;2022-09-28T01:58:08;9.40;1.00
11132;DHT22;5620;53.570;9.718;2022-09-28T02:00:38;9.50;1.00
11132;DHT22;5620;53.570;9.718;2022-09-28T02:03:11;9.50;99.90
11132;DHT22;5620;53.570;9.718;2022-09-28T02:05:56;9.50;99.90
11132;DHT22;5620;53.570;9.718;2022-09-28T02:08:36;9.60;1.00
11132;DHT22;5620;53.570;9.718;2022-09-28T02:11:22;9.70;99.90
11132;DHT22;5620;53.570;9.718;2022-09-28T02:14:00;9.70;99.90
11132;DHT22;5620;53.570;9.718;2022-09-28T02:16:47;9.70;56.40
11132;DHT22;5620;53.570;9.718;2022-09-28T02:19:33;9.60;99.90
11132;DHT22;5620;53.570;9.718;2022-09-28T02:25:10;9.20;99.90
11132;DHT22;5620;53.570;9.718;2022-09-28T02:27:58;9.00;99.90
11132;DHT22;5620;53.570;9.718;2022-09-28T02:30:24;8.90;1.00
11132;DHT22;5620;53.570;9.718;2022-09-28T02:32:54;8.90;99.90
11132;DHT22;5620;53.570;9.718;2022-09-28T02:35:31;8.80;99.90
11132;DHT22;5620;53.570;9.718;2022-09-28T02:37:59;8.80;99.90
11132;DHT22;5620;53.570;9.718;2022-09-28T02:40:29;8.90;99.90
11132;DHT22;5620;53.570;9.718;2022-09-28T02:54:32;8.60;1.00
11132;DHT22;5620;53.570;9.718;2022-09-28T02:57:38;8.60;99.90
11132;DHT22;5620;53.570;9.718;2022-09-28T03:00:25;8.70;99.90
11132;DHT22;5620;53.570;9.718;2022-09-28T03:09:33;8.70;1.00
11132;DHT22;5620;53.570;9.718;2022-09-28T03:12:07;8.80;99.90
11132;DHT22;5620;53.570;9.718;2022-09-28T03:14:35;8.90;99.90
11132;DHT22;5620;53.570;9.718;2022-09-28T03:17:03;8.90;99.90
11132;DHT22;5620;53.570;9.718;2022-09-28T03:19:32;9.00;99.90
11132;DHT22;5620;53.570;9.718;2022-09-28T03:21:59;9.00;38.90
11132;DHT22;5620;53.570;9.718;2022-09-28T03:24:26;9.00;81.10
11132;DHT22;5620;53.570;9.718;2022-09-28T03:26:54;9.10;90.80
11132;DHT22;5620;53.570;9.718;2022-09-28T03:29:20;9.10;1.00
11132;DHT22;5620;53.570;9.718;2022-09-28T03:31:47;9.20;1.00
11132;DHT22;5620;53.570;9.718;2022-09-28T03:34:14;9.10;1.00
11132;DHT22;5620;53.570;9.718;2022-09-28T03:36:43;9.10;1.00
11132;DHT22;5620;53.570;9.718;2022-09-28T03:39:20;9.20;1.00
11132;DHT22;5620;53.570;9.718;2022-09-28T03:41:48;9.20;1.00
11132;DHT22;5620;53.570;9.718;2022-09-28T03:44:13;9.20;1.00
11132;DHT22;5620;53.570;9.718;2022-09-28T03:46:40;9.20;1.00
11132;DHT22;5620;53.570;9.718;2022-09-28T03:49:07;9.30;1.00
11132;DHT22;5620;53.570;9.718;2022-09-28T03:51:34;9.20;99.90
11132;DHT22;5620;53.570;9.718;2022-09-28T03:54:00;9.30;99.90
11132;DHT22;5620;53.570;9.718;2022-09-28T03:56:28;9.30;99.90
11132;DHT22;5620;53.570;9.718;2022-09-28T03:58:54;9.20;30.60
11132;DHT22;5620;53.570;9.718;2022-09-28T04:01:22;9.20;99.90
11132;DHT22;5620;53.570;9.718;2022-09-28T04:03:52;9.30;99.90
11132;DHT22;5620;53.570;9.718;2022-09-28T04:06:20;9.20;11.70
11132;DHT22;5620;53.570;9.718;2022-09-28T04:08:46;9.20;11.70
11132;DHT22;5620;53.570;9.718;2022-09-28T04:11:14;9.20;52.50
11132;DHT22;5620;53.570;9.718;2022-09-28T04:13:40;9.20;21.90
11132;DHT22;5620;53.570;9.718;2022-09-28T04:16:08;9.30;99.90
11132;DHT22;5620;53.570;9.718;2022-09-28T04:18:36;9.30;23.70
11132;DHT22;5620;53.570;9.718;2022-09-28T04:21:04;9.20;1.00
11132;DHT22;5620;53.570;9.718;2022-09-28T04:23:31;9.20;1.00
11132;DHT22;5620;53.570;9.718;2022-09-28T04:25:59;9.10;1.00
11132;DHT22;5620;53.570;9.718;2022-09-28T04:28:27;9.10;1.00
11132;DHT22;5620;53.570;9.718;2022-09-28T04:30:53;9.10;1.00
11132;DHT22;5620;53.570;9.718;2022-09-28T04:33:21;9.10;1.00
11132;DHT22;5620;53.570;9.718;2022-09-28T04:35:49;9.10;1.00
11132;DHT22;5620;53.570;9.718;2022-09-28T04:38:16;9.10;1.00
11132;DHT22;5620;53.570;9.718;2022-09-28T04:40:47;9.00;1.00
11132;DHT22;5620;53.570;9.718;2022-09-28T04:43:12;9.00;99.90
11132;DHT22;5620;53.570;9.718;2022-09-28T04:45:41;8.90;1.00
11132;DHT22;5620;53.570;9.718;2022-09-28T04:48:09;9.00;1.00
11132;DHT22;5620;53.570;9.718;2022-09-28T04:50:35;9.00;1.00
11132;DHT22;5620;53.570;9.718;2022-09-28T04:53:04;9.00;1.00
11132;DHT22;5620;53.570;9.718;2022-09-28T04:55:32;9.00;1.00
11132;DHT22;5620;53.570;9.718;2022-09-28T04:58:02;9.10;1.00
11132;DHT22;5620;53.570;9.718;2022-09-28T05:00:48;9.10;1.00
11132;DHT22;5620;53.570;9.718;2022-09-28T05:03:16;9.00;99.90
11132;DHT22;5620;53.570;9.718;2022-09-28T05:05:47;9.00;99.90
11132;DHT22;5620;53.570;9.718;2022-09-28T05:08:15;9.00;99.90
11132;DHT22;5620;53.570;9.718;2022-09-28T05:10:40;8.90;99.90
11132;DHT22;5620;53.570;9.718;2022-09-28T05:13:09;8.90;99.90
11132;DHT22;5620;53.570;9.718;2022-09-28T05:15:37;8.90;99.90
11132;DHT22;5620;53.570;9.718;2022-09-28T05:18:06;8.90;99.90
11132;DHT22;5620;53.570;9.718;2022-09-28T05:20:32;8.80;99.90
11132;DHT22;5620;53.570;9.718;2022-09-28T05:22:59;8.80;1.00
11132;DHT22;5620;53.570;9.718;2022-09-28T05:25:26;8.90;1.00
11132;DHT22;5620;53.570;9.718;2022-09-28T05:27:57;8.90;1.00
11132;DHT22;5620;53.570;9.718;2022-09-28T05:30:24;9.00;1.00
11132;DHT22;5620;53.570;9.718;2022-09-28T05:32:52;9.00;1.00
11132;DHT22;5620;53.570;9.718;2022-09-28T05:35:19;9.10;1.00
11132;DHT22;5620;53.570;9.718;2022-09-28T05:37:46;9.20;1.00
11132;DHT22;5620;53.570;9.718;2022-09-28T05:40:13;9.30;1.00
11132;DHT22;5620;53.570;9.718;2022-09-28T05:42:38;9.30;99.90
11132;DHT22;5620;53.570;9.718;2022-09-28T05:45:05;9.40;99.90
11132;DHT22;5620;53.570;9.718;2022-09-28T05:47:40;9.50;99.90
11132;DHT22;5620;53.570;9.718;2022-09-28T05:50:09;9.60;99.90
11132;DHT22;5620;53.570;9.718;2022-09-28T05:52:38;9.60;99.90
11132;DHT22;5620;53.570;9.718;2022-09-28T05:55:05;9.70;99.90
11132;DHT22;5620;53.570;9.718;2022-09-28T05:57:32;9.80;4.90
11132;DHT22;5620;53.570;9.718;2022-09-28T05:59:58;9.80;1.00
11132;DHT22;5620;53.570;9.718;2022-09-28T06:02:24;9.90;90.40
11132;DHT22;5620;53.570;9.718;2022-09-28T06:04:50;9.90;1.00
11132;DHT22;5620;53.570;9.718;2022-09-28T06:07:18;10.00;1.50
11132;DHT22;5620;53.570;9.718;2022-09-28T06:09:44;10.10;1.00
11132;DHT22;5620;53.570;9.718;2022-09-28T06:12:09;10.20;1.00
11132;DHT22;5620;53.570;9.718;2022-09-28T06:14:36;10.30;1.00
11132;DHT22;5620;53.570;9.718;2022-09-28T06:17:04;10.30;99.90
11132;DHT22;5620;53.570;9.718;2022-09-28T06:19:30;10.30;99.90
11132;DHT22;5620;53.570;9.718;2022-09-28T06:21:57;10.30;5.70
11132;DHT22;5620;53.570;9.718;2022-09-28T06:24:24;10.40;25.80
11132;DHT22;5620;53.570;9.718;2022-09-28T06:26:52;10.40;38.80
11132;DHT22;5620;53.570;9.718;2022-09-28T06:29:19;10.50;1.00
11132;DHT22;5620;53.570;9.718;2022-09-28T06:31:46;10.50;1.00
11132;DHT22;5620;53.570;9.718;2022-09-28T06:34:14;10.60;1.00
11132;DHT22;5620;53.570;9.718;2022-09-28T06:36:41;10.60;1.00
11132;DHT22;5620;53.570;9.718;2022-09-28T06:39:09;10.60;99.90
11132;DHT22;5620;53.570;9.718;2022-09-28T06:41:37;10.60;99.90
11132;DHT22;5620;53.570;9.718;2022-09-28T06:44:04;10.60;99.90
11132;DHT22;5620;53.570;9.718;2022-09-28T06:46:31;10.60;99.90
11132;DHT22;5620;53.570;9.718;2022-09-28T06:48:57;10.70;99.90
11132;DHT22;5620;53.570;9.718;2022-09-28T06:51:24;10.70;66.50
11132;DHT22;5620;53.570;9.718;2022-09-28T06:53:51;10.70;1.00
11132;DHT22;5620;53.570;9.718;2022-09-28T06:56:20;10.80;20.70
11132;DHT22;5620;53.570;9.718;2022-09-28T06:58:49;10.90;90.90
11132;DHT22;5620;53.570;9.718;2022-09-28T07:01:15;11.20;99.90
11132;DHT22;5620;53.570;9.718;2022-09-28T07:03:42;11.50;1.00
11132;DHT22;5620;53.570;9.718;2022-09-28T07:06:11;11.70;99.90
11132;DHT22;5620;53.570;9.718;2022-09-28T07:08:39;11.80;70.10
11132;DHT22;5620;53.570;9.718;2022-09-28T07:11:06;11.80;1.00
11132;DHT22;5620;53.570;9.718;2022-09-28T07:13:33;11.80;1.00
11132;DHT22;5620;53.570;9.718;2022-09-28T07:16:00;11.80;1.00
11132;DHT22;5620;53.570;9.718;2022-09-28T07:18:28;12.00;1.00
11132;DHT22;5620;53.570;9.718;2022-09-28T07:20:58;12.10;99.90
11132;DHT22;5620;53.570;9.718;2022-09-28T07:23:25;11.90;1.00
11132;DHT22;5620;53.570;9.718;2022-09-28T07:25:51;12.00;99.90
11132;DHT22;5620;53.570;9.718;2022-09-28T07:28:17;12.20;99.90
11132;DHT22;5620;53.570;9.718;2022-09-28T07:30:45;12.30;1.00
11132;DHT22;5620;53.570;9.718;2022-09-28T07:33:13;12.30;1.00
11132;DHT22;5620;53.570;9.718;2022-09-28T07:35:51;12.40;1.00
11132;DHT22;5620;53.570;9.718;2022-09-28T07:38:19;12.40;99.90
11132;DHT22;5620;53.570;9.718;2022-09-28T07:40:47;12.40;99.90
11132;DHT22;5620;53.570;9.718;2022-09-28T07:43:12;12.30;30.00
11132;DHT22;5620;53.570;9.718;2022-09-28T07:45:39;12.10;1.00
11132;DHT22;5620;53.570;9.718;2022-09-28T07:48:07;12.10;1.00
11132;DHT22;5620;53.570;9.718;2022-09-28T07:50:34;12.00;1.00
11132;DHT22;5620;53.570;9.718;2022-09-28T07:53:09;12.00;1.00
11132;DHT22;5620;53.570;9.718;2022-09-28T07:55:38;12.20;1.00
11132;DHT22;5620;53.570;9.718;2022-09-28T07:58:05;12.30;1.00
11132;DHT22;5620;53.570;9.718;2022-09-28T08:00:30;12.40;1.00
11132;DHT22;5620;53.570;9.718;2022-09-28T08:03:01;12.50;1.00
11132;DHT22;5620;53.570;9.718;2022-09-28T08:05:28;12.70;1.00
11132;DHT22;5620;53.570;9.718;2022-09-28T08:07:54;13.00;1.00
11132;DHT22;5620;53.570;9.718;2022-09-28T08:10:19;13.30;99.90
11132;DHT22;5620;53.570;9.718;2022-09-28T08:12:47;13.50;99.90
11132;DHT22;5620;53.570;9.718;2022-09-28T08:15:14;13.70;88.00
11132;DHT22;5620;53.570;9.718;2022-09-28T08:17:48;13.90;25.40
11132;DHT22;5620;53.570;9.718;2022-09-28T08:20:19;14.10;1.00
11132;DHT22;5620;53.570;9.718;2022-09-28T08:22:46;14.30;1.00
11132;DHT22;5620;53.570;9.718;2022-09-28T08:25:12;14.50;1.00
11132;DHT22;5620;53.570;9.718;2022-09-28T08:27:40;14.70;99.90
11132;DHT22;5620;53.570;9.718;2022-09-28T08:30:06;14.80;99.90
11132;DHT22;5620;53.570;9.718;2022-09-28T08:32:34;14.60;99.90
11132;DHT22;5620;53.570;9.718;2022-09-28T08:35:01;14.50;99.90
11132;DHT22;5620;53.570;9.718;2022-09-28T08:37:27;14.40;93.20
11132;DHT22;5620;53.570;9.718;2022-09-28T08:39:55;14.30;78.00
11132;DHT22;5620;53.570;9.718;2022-09-28T08:42:39;14.30;74.50
11132;DHT22;5620;53.570;9.718;2022-09-28T08:45:16;14.30;16.60
11132;DHT22;5620;53.570;9.718;2022-09-28T08:48:09;14.20;4.40
11132;DHT22;5620;53.570;9.718;2022-09-28T08:51:23;14.30;1.00
11132;DHT22;5620;53.570;9.718;2022-09-28T08:57:03;14.50;1.00
11132;DHT22;5620;53.570;9.718;2022-09-28T08:59:51;14.60;1.00
11132;DHT22;5620;53.570;9.718;2022-09-28T09:04:52;14.80;1.00
11132;DHT22;5620;53.570;9.718;2022-09-28T09:16:17;15.80;1.00
11132;DHT22;5620;53.570;9.718;2022-09-28T09:19:14;16.00;1.00
11132;DHT22;5620;53.570;9.718;2022-09-28T09:24:47;16.10;1.00
11132;DHT22;5620;53.570;9.718;2022-09-28T09:30:17;16.00;99.90
11132;DHT22;5620;53.570;9.718;2022-09-28T09:33:09;16.20;99.90
11132;DHT22;5620;53.570;9.718;2022-09-28T09:36:58;16.30;99.90
11132;DHT22;5620;53.570;9.718;2022-09-28T09:45:10;16.00;99.90
11132;DHT22;5620;53.570;9.718;2022-09-28T09:48:12;16.10;99.90
11132;DHT22;5620;53.570;9.718;2022-09-28T09:51:02;16.30;99.90
11132;DHT22;5620;53.570;9.718;2022-09-28T09:53:49;16.60;99.90
11132;DHT22;5620;53.570;9.718;2022-09-28T09:56:33;16.80;99.90
11132;DHT22;5620;53.570;9.718;2022-09-28T09:59:07;17.00;99.90
11132;DHT22;5620;53.570;9.718;2022-09-28T10:01:39;17.10;99.90
11132;DHT22;5620;53.570;9.718;2022-09-28T10:04:35;17.30;99.90
11132;DHT22;5620;53.570;9.718;2022-09-28T10:07:08;17.40;99.90
11132;DHT22;5620;53.570;9.718;2022-09-28T10:09:44;17.60;99.90
11132;DHT22;5620;53.570;9.718;2022-09-28T10:12:17;17.50;99.90
11132;DHT22;5620;53.570;9.718;2022-09-28T10:14:47;17.10;99.90
11132;DHT22;5620;53.570;9.718;2022-09-28T10:17:16;17.10;99.90
11132;DHT22;5620;53.570;9.718;2022-09-28T10:19:46;17.30;99.90
11132;DHT22;5620;53.570;9.718;2022-09-28T10:22:16;17.80;99.90
11132;DHT22;5620;53.570;9.718;2022-09-28T10:24:50;18.00;99.90
11132;DHT22;5620;53.570;9.718;2022-09-28T10:27:23;18.40;99.90
11132;DHT22;5620;53.570;9.718;2022-09-28T10:32:45;18.20;99.90
11132;DHT22;5620;53.570;9.718;2022-09-28T10:35:24;18.50;99.90
11132;DHT22;5620;53.570;9.718;2022-09-28T10:38:04;19.10;99.90
11132;DHT22;5620;53.570;9.718;2022-09-28T10:41:10;19.60;99.90
11132;DHT22;5620;53.570;9.718;2022-09-28T10:44:03;19.70;99.90
11132;DHT22;5620;53.570;9.718;2022-09-28T10:46:31;19.50;1.00
11132;DHT22;5620;53.570;9.718;2022-09-28T10:49:01;19.80;1.00
11132;DHT22;5620;53.570;9.718;2022-09-28T10:51:48;20.10;1.00
11132;DHT22;5620;53.570;9.718;2022-09-28T10:57:25;23.10;1.00
11132;DHT22;5620;53.570;9.718;2022-09-28T10:59:52;25.10;1.00
11132;DHT22;5620;53.570;9.718;2022-09-28T11:05:21;27.10;1.00
11132;DHT22;5620;53.570;9.718;2022-09-28T11:07:49;27.90;1.00
11132;DHT22;5620;53.570;9.718;2022-09-28T11:10:24;28.80;1.00
11132;DHT22;5620;53.570;9.718;2022-09-28T11:12:52;29.40;1.00
11132;DHT22;5620;53.570;9.718;2022-09-28T11:15:30;30.10;1.00
11132;DHT22;5620;53.570;9.718;2022-09-28T11:18:18;30.90;1.00
11132;DHT22;5620;53.570;9.718;2022-09-28T11:20:47;31.10;1.00
11132;DHT22;5620;53.570;9.718;2022-09-28T11:23:32;31.50;1.00
11132;DHT22;5620;53.570;9.718;2022-09-28T11:26:02;32.20;1.00
11132;DHT22;5620;53.570;9.718;2022-09-28T11:28:32;32.50;1.00
11132;DHT22;5620;53.570;9.718;2022-09-28T11:31:05;32.30;1.00
11132;DHT22;5620;53.570;9.718;2022-09-28T11:33:41;31.90;1.00
11132;DHT22;5620;53.570;9.718;2022-09-28T11:44:49;30.00;1.00
11132;DHT22;5620;53.570;9.718;2022-09-28T12:13:27;33.50;1.00
11132;DHT22;5620;53.570;9.718;2022-09-28T12:16:35;33.60;1.00
11132;DHT22;5620;53.570;9.718;2022-09-28T12:22:53;30.60;1.00
11132;DHT22;5620;53.570;9.718;2022-09-28T12:25:17;30.50;1.00
11132;DHT22;5620;53.570;9.718;2022-09-28T12:28:12;31.00;1.00
11132;DHT22;5620;53.570;9.718;2022-09-28T12:30:51;31.70;1.00
11132;DHT22;5620;53.570;9.718;2022-09-28T12:33:21;31.40;1.00
11132;DHT22;5620;53.570;9.718;2022-09-28T12:36:12;31.40;1.00
11132;DHT22;5620;53.570;9.718;2022-09-28T12:47:44;31.80;1.00
11132;DHT22;5620;53.570;9.718;2022-09-28T12:50:46;31.10;1.00
11132;DHT22;5620;53.570;9.718;2022-09-28T13:08:21;26.90;1.00
11132;DHT22;5620;53.570;9.718;2022-09-28T13:16:40;23.90;1.00
11132;DHT22;5620;53.570;9.718;2022-09-28T13:25:18;24.20;1.00
11132;DHT22;5620;53.570;9.718;2022-09-28T13:28:05;26.50;1.00
11132;DHT22;5620;53.570;9.718;2022-09-28T13:30:35;29.60;1.00
11132;DHT22;5620;53.570;9.718;2022-09-28T13:33:04;31.40;1.00
11132;DHT22;5620;53.570;9.718;2022-09-28T13:35:33;33.00;1.00
11132;DHT22;5620;53.570;9.718;2022-09-28T13:41:12;35.20;99.90
11132;DHT22;5620;53.570;9.718;2022-09-28T13:44:30;34.60;99.90
11132;DHT22;5620;53.570;9.718;2022-09-28T13:47:15;33.70;1.00
11132;DHT22;5620;53.570;9.718;2022-09-28T14:01:55;33.10;1.00
11132;DHT22;5620;53.570;9.718;2022-09-28T14:04:57;29.80;1.00
11132;DHT22;5620;53.570;9.718;2022-09-28T14:11:22;25.00;1.00
11132;DHT22;5620;53.570;9.718;2022-09-28T14:13:13;23.70;1.00
11132;DHT22;5620;53.570;9.718;2022-09-28T14:16:23;22.90;1.00
11132;DHT22;5620;53.570;9.718;2022-09-28T14:30:16;29.30;1.00
11132;DHT22;5620;53.570;9.718;2022-09-28T14:32:55;30.20;1.00
11132;DHT22;5620;53.570;9.718;2022-09-28T14:38:17;28.10;1.00
11132;DHT22;5620;53.570;9.718;2022-09-28T14:54:38;28.20;1.00
11132;DHT22;5620;53.570;9.718;2022-09-28T14:57:21;27.10;1.00
11132;DHT22;5620;53.570;9.718;2022-09-28T14:59:48;25.10;1.00
11132;DHT22;5620;53.570;9.718;2022-09-28T15:02:37;25.90;1.00
11132;DHT22;5620;53.570;9.718;2022-09-28T15:05:22;28.50;1.00
11132;DHT22;5620;53.570;9.718;2022-09-28T15:07:52;31.10;1.00
11132;DHT22;5620;53.570;9.718;2022-09-28T15:10:47;32.80;1.00
11132;DHT22;5620;53.570;9.718;2022-09-28T15:13:18;33.30;1.00
11132;DHT22;5620;53.570;9.718;2022-09-28T15:15:48;33.80;1.00
11132;DHT22;5620;53.570;9.718;2022-09-28T15:21:14;34.80;1.00
11132;DHT22;5620;53.570;9.718;2022-09-28T15:23:42;32.70;1.00
11132;DHT22;5620;53.570;9.718;2022-09-28T15:26:32;31.80;1.00
11132;DHT22;5620;53.570;9.718;2022-09-28T15:29:01;31.90;1.00
11132;DHT22;5620;53.570;9.718;2022-09-28T15:31:33;29.60;1.00
11132;DHT22;5620;53.570;9.718;2022-09-28T15:34:09;26.90;1.00
11132;DHT22;5620;53.570;9.718;2022-09-28T15:36:45;24.50;1.00
11132;DHT22;5620;53.570;9.718;2022-09-28T15:39:32;22.50;1.00
11132;DHT22;5620;53.570;9.718;2022-09-28T15:41:59;20.90;1.00
11132;DHT22;5620;53.570;9.718;2022-09-28T15:47:29;18.70;1.00
11132;DHT22;5620;53.570;9.718;2022-09-28T15:50:21;17.90;1.00
11132;DHT22;5620;53.570;9.718;2022-09-28T15:53:12;17.20;1.00
11132;DHT22;5620;53.570;9.718;2022-09-28T15:55:43;16.70;1.00
11132;DHT22;5620;53.570;9.718;2022-09-28T16:12:49;14.70;1.00
11132;DHT22;5620;53.570;9.718;2022-09-28T16:15:35;14.60;1.00
11132;DHT22;5620;53.570;9.718;2022-09-28T16:18:21;14.40;1.00
11132;DHT22;5620;53.570;9.718;2022-09-28T16:20:52;14.20;1.00
11132;DHT22;5620;53.570;9.718;2022-09-28T16:23:32;14.00;1.00
11132;DHT22;5620;53.570;9.718;2022-09-28T16:28:50;13.70;1.00
11132;DHT22;5620;53.570;9.718;2022-09-28T16:31:35;13.50;1.00
11132;DHT22;5620;53.570;9.718;2022-09-28T16:34:18;13.30;1.00
11132;DHT22;5620;53.570;9.718;2022-09-28T16:36:46;13.20;1.00
11132;DHT22;5620;53.570;9.718;2022-09-28T16:39:13;13.00;1.00
11132;DHT22;5620;53.570;9.718;2022-09-28T16:41:52;12.90;1.00
11132;DHT22;5620;53.570;9.718;2022-09-28T16:44:27;12.80;1.00
11132;DHT22;5620;53.570;9.718;2022-09-28T16:46:56;12.60;1.00
11132;DHT22;5620;53.570;9.718;2022-09-28T16:49:23;12.50;1.00
11132;DHT22;5620;53.570;9.718;2022-09-28T16:51:53;12.40;1.00
11132;DHT22;5620;53.570;9.718;2022-09-28T16:54:25;12.30;1.00
11132;DHT22;5620;53.570;9.718;2022-09-28T16:56:53;12.20;1.00
11132;DHT22;5620;53.570;9.718;2022-09-28T16:59:18;12.10;1.00
11132;DHT22;5620;53.570;9.718;2022-09-28T17:01:45;12.00;1.00
11132;DHT22;5620;53.570;9.718;2022-09-28T17:04:13;11.90;1.00
11132;DHT22;5620;53.570;9.718;2022-09-28T17:06:39;11.80;1.00
11132;DHT22;5620;53.570;9.718;2022-09-28T17:09:07;11.80;1.00
11132;DHT22;5620;53.570;9.718;2022-09-28T17:11:34;11.70;1.00
11132;DHT22;5620;53.570;9.718;2022-09-28T17:13:59;11.70;1.00
11132;DHT22;5620;53.570;9.718;2022-09-28T17:16:28;11.60;1.00
11132;DHT22;5620;53.570;9.718;2022-09-28T17:18:54;11.60;1.00
11132;DHT22;5620;53.570;9.718;2022-09-28T17:21:20;11.50;1.00
11132;DHT22;5620;53.570;9.718;2022-09-28T17:23:48;11.50;1.00
11132;DHT22;5620;53.570;9.718;2022-09-28T17:26:19;11.40;1.00
11132;DHT22;5620;53.570;9.718;2022-09-28T17:28:51;11.40;1.00
11132;DHT22;5620;53.570;9.718;2022-09-28T17:31:18;11.40;1.00
11132;DHT22;5620;53.570;9.718;2022-09-28T17:33:46;11.30;1.00
11132;DHT22;5620;53.570;9.718;2022-09-28T17:36:17;11.30;1.00
11132;DHT22;5620;53.570;9.718;2022-09-28T17:38:47;11.20;1.00
11132;DHT22;5620;53.570;9.718;2022-09-28T17:41:16;11.20;1.00
11132;DHT22;5620;53.570;9.718;2022-09-28T17:43:43;11.10;1.00
11132;DHT22;5620;53.570;9.718;2022-09-28T17:46:29;11.00;1.00
11132;DHT22;5620;53.570;9.718;2022-09-28T17:48:59;11.00;1.00
11132;DHT22;5620;53.570;9.718;2022-09-28T17:51:31;10.90;1.00
11132;DHT22;5620;53.570;9.718;2022-09-28T17:54:03;10.90;1.00
11132;DHT22;5620;53.570;9.718;2022-09-28T17:56:30;10.80;1.00
11132;DHT22;5620;53.570;9.718;2022-09-28T17:59:03;10.80;29.20
11132;DHT22;5620;53.570;9.718;2022-09-28T18:01:31;10.80;75.10
11132;DHT22;5620;53.570;9.718;2022-09-28T18:04:03;10.80;99.90
11132;DHT22;5620;53.570;9.718;2022-09-28T18:06:31;10.70;99.90
11132;DHT22;5620;53.570;9.718;2022-09-28T18:08:58;10.70;99.90
11132;DHT22;5620;53.570;9.718;2022-09-28T18:11:27;10.60;99.90
11132;DHT22;5620;53.570;9.718;2022-09-28T18:13:54;10.60;99.90
11132;DHT22;5620;53.570;9.718;2022-09-28T18:16:20;10.50;99.90
11132;DHT22;5620;53.570;9.718;2022-09-28T18:18:47;10.50;99.90
11132;DHT22;5620;53.570;9.718;2022-09-28T18:21:14;10.40;99.90
11132;DHT22;5620;53.570;9.718;2022-09-28T18:23:42;10.40;99.90
11132;DHT22;5620;53.570;9.718;2022-09-28T18:26:12;10.30;99.90
11132;DHT22;5620;53.570;9.718;2022-09-28T18:28:45;10.20;1.00
11132;DHT22;5620;53.570;9.718;2022-09-28T18:31:13;10.10;1.00
11132;DHT22;5620;53.570;9.718;2022-09-28T18:33:42;10.10;1.00
11132;DHT22;5620;53.570;9.718;2022-09-28T18:36:08;10.00;1.00
11132;DHT22;5620;53.570;9.718;2022-09-28T18:38:36;10.00;1.00
11132;DHT22;5620;53.570;9.718;2022-09-28T18:41:16;9.90;1.00
11132;DHT22;5620;53.570;9.718;2022-09-28T18:43:47;9.80;1.00
11132;DHT22;5620;53.570;9.718;2022-09-28T18:46:26;9.80;1.00
11132;DHT22;5620;53.570;9.718;2022-09-28T18:49:12;9.70;1.00
11132;DHT22;5620;53.570;9.718;2022-09-28T18:51:38;9.70;1.00
11132;DHT22;5620;53.570;9.718;2022-09-28T18:54:06;9.60;1.00
11132;DHT22;5620;53.570;9.718;2022-09-28T18:56:35;9.60;1.00
11132;DHT22;5620;53.570;9.718;2022-09-28T18:59:12;9.50;1.00
11132;DHT22;5620;53.570;9.718;2022-09-28T19:01:40;9.40;11.80
11132;DHT22;5620;53.570;9.718;2022-09-28T19:04:08;9.50;32.10
11132;DHT22;5620;53.570;9.718;2022-09-28T19:06:39;9.40;63.10
11132;DHT22;5620;53.570;9.718;2022-09-28T19:09:07;9.40;91.90
11132;DHT22;5620;53.570;9.718;2022-09-28T19:11:35;9.40;99.90
11132;DHT22;5620;53.570;9.718;2022-09-28T19:14:03;9.30;99.90
11132;DHT22;5620;53.570;9.718;2022-09-28T19:16:30;9.30;99.90
11132;DHT22;5620;53.570;9.718;2022-09-28T19:19:00;9.30;99.90
11132;DHT22;5620;53.570;9.718;2022-09-28T19:21:27;9.20;99.90
11132;DHT22;5620;53.570;9.718;2022-09-28T19:24:04;9.20;99.90
11132;DHT22;5620;53.570;9.718;2022-09-28T19:26:31;9.20;99.90
11132;DHT22;5620;53.570;9.718;2022-09-28T19:29:08;9.10;99.90
11132;DHT22;5620;53.570;9.718;2022-09-28T19:31:47;9.10;99.90
11132;DHT22;5620;53.570;9.718;2022-09-28T19:34:14;9.10;99.90
11132;DHT22;5620;53.570;9.718;2022-09-28T19:36:41;9.10;99.90
11132;DHT22;5620;53.570;9.718;2022-09-28T19:39:08;9.00;1.00
11132;DHT22;5620;53.570;9.718;2022-09-28T19:41:40;9.00;1.00
11132;DHT22;5620;53.570;9.718;2022-09-28T19:44:16;9.00;1.00
11132;DHT22;5620;53.570;9.718;2022-09-28T19:47:10;9.10;1.00
11132;DHT22;5620;53.570;9.718;2022-09-28T19:49:38;9.10;1.00
11132;DHT22;5620;53.570;9.718;2022-09-28T19:52:07;9.10;1.00
11132;DHT22;5620;53.570;9.718;2022-09-28T19:54:36;9.20;1.00
11132;DHT22;5620;53.570;9.718;2022-09-28T19:57:05;9.20;1.00
11132;DHT22;5620;53.570;9.718;2022-09-28T19:59:41;9.20;1.00
11132;DHT22;5620;53.570;9.718;2022-09-28T20:02:09;9.30;1.00
11132;DHT22;5620;53.570;9.718;2022-09-28T20:04:36;9.30;1.00
11132;DHT22;5620;53.570;9.718;2022-09-28T20:07:04;9.30;22.70
11132;DHT22;5620;53.570;9.718;2022-09-28T20:09:34;9.30;56.90
11132;DHT22;5620;53.570;9.718;2022-09-28T20:12:01;9.20;88.80